createdAt,value
2018-07-04T00:02:27.356Z,36.70
2018-07-04T00:04:55.016Z,36.12
2018-07-04T00:07:23.537Z,36.95
2018-07-04T00:09:52.010Z,36.99
2018-07-04T00:12:19.772Z,36.63
2018-07-04T00:14:47.457Z,37.18
2018-07-04T00:17:15.136Z,36.61
2018-07-04T00:19:42.796Z,36.60
2018-07-04T00:22:10.449Z,37.08
2018-07-04T00:24:38.408Z,36.82
2018-07-04T00:27:06.118Z,37.35
2018-07-04T00:29:33.820Z,37.61
2018-07-04T00:32:01.496Z,37.01
2018-07-04T00:34:29.446Z,37.57
2018-07-04T00:36:57.137Z,37.94
2018-07-04T00:39:24.860Z,37.49
2018-07-04T00:41:52.533Z,38.06
2018-07-04T00:44:21.428Z,37.30
2018-07-04T00:46:49.145Z,38.15
2018-07-04T00:49:17.491Z,38.14
2018-07-04T00:51:46.356Z,37.63
2018-07-04T00:54:14.308Z,38.24
2018-07-04T00:56:42.707Z,38.00
2018-07-04T00:59:10.368Z,37.67
2018-07-04T01:01:38.060Z,37.46
2018-07-04T01:04:06.165Z,37.24
2018-07-04T01:06:34.865Z,37.62
2018-07-04T01:09:02.555Z,37.61
2018-07-04T01:11:30.254Z,37.57
2018-07-04T01:13:59.112Z,37.54
2018-07-04T01:16:26.800Z,37.07
2018-07-04T01:18:54.836Z,37.40
2018-07-04T01:21:23.444Z,37.48
2018-07-04T01:23:51.239Z,37.76
2018-07-04T01:26:18.901Z,37.36
2018-07-04T01:28:50.521Z,37.71
2018-07-04T01:31:18.492Z,38.05
2018-07-04T01:33:46.176Z,37.89
2018-07-04T01:36:13.824Z,37.56
2018-07-04T01:38:41.510Z,37.98
2018-07-04T01:41:09.464Z,37.58
2018-07-04T01:43:37.609Z,38.12
2018-07-04T01:46:05.299Z,37.98
2018-07-04T01:48:33.244Z,38.36
2018-07-04T01:51:01.639Z,37.87
2018-07-04T01:53:29.308Z,37.57
2018-07-04T01:55:57.615Z,38.10
2018-07-04T01:58:26.192Z,37.56
2018-07-04T02:00:53.876Z,38.09
2018-07-04T02:03:21.557Z,38.16
2018-07-04T02:05:49.580Z,38.33
2018-07-04T02:08:17.256Z,38.47
2018-07-04T02:10:44.917Z,38.12
2018-07-04T02:13:12.610Z,38.39
2018-07-04T02:15:40.298Z,38.34
2018-07-04T02:18:08.016Z,38.24
2018-07-04T02:20:35.716Z,38.69
2018-07-04T02:23:03.690Z,38.21
2018-07-04T02:25:34.456Z,38.62
2018-07-04T02:28:02.180Z,38.40
2018-07-04T02:30:30.130Z,38.10
2018-07-04T02:32:57.802Z,38.67
2018-07-04T02:35:25.498Z,38.83
2018-07-04T02:37:53.216Z,38.45
2018-07-04T02:40:21.364Z,38.56
2018-07-04T02:42:49.060Z,38.85
2018-07-04T02:45:16.739Z,39.11
2018-07-04T02:47:44.756Z,38.93
2018-07-04T02:50:12.443Z,38.70
2018-07-04T02:52:40.604Z,39.60
2018-07-04T02:55:09.376Z,38.98
2018-07-04T02:57:37.051Z,39.71
2018-07-04T03:00:04.741Z,39.32
2018-07-04T03:02:32.524Z,39.73
2018-07-04T03:05:00.500Z,39.06
2018-07-04T03:07:28.187Z,39.72
2018-07-04T03:09:55.870Z,39.38
2018-07-04T03:12:23.577Z,39.61
2018-07-04T03:14:51.528Z,39.34
2018-07-04T03:17:19.198Z,39.39
2018-07-04T03:19:46.872Z,39.88
2018-07-04T03:22:14.559Z,39.67
2018-07-04T03:24:43.359Z,40.15
2018-07-04T03:27:11.027Z,39.74
2018-07-04T03:29:38.698Z,39.65
2018-07-04T03:32:06.385Z,40.25
2018-07-04T03:34:34.360Z,40.20
2018-07-04T03:37:02.061Z,40.44
2018-07-04T03:39:29.733Z,39.90
2018-07-04T03:41:57.837Z,40.34
2018-07-04T03:44:25.558Z,40.08
2018-07-04T03:46:53.288Z,40.44
2018-07-04T03:49:21.274Z,40.06
2018-07-04T03:51:49.269Z,40.57
2018-07-04T03:54:20.640Z,40.79
2018-07-04T03:56:48.333Z,41.10
2018-07-04T03:59:16.306Z,40.65
2018-07-04T04:01:44.824Z,40.75
2018-07-04T04:04:12.488Z,41.38
2018-07-04T04:06:40.242Z,41.12
2018-07-04T04:09:08.267Z,41.36
2018-07-04T04:11:36.619Z,41.84
2018-07-04T04:14:04.373Z,41.35
2018-07-04T04:16:32.363Z,41.55
2018-07-04T04:19:00.070Z,41.49
2018-07-04T04:21:28.122Z,41.49
2018-07-04T04:23:55.817Z,41.09
2018-07-04T04:26:25.259Z,41.16
2018-07-04T04:28:53.060Z,41.17
2018-07-04T04:31:22.399Z,41.12
2018-07-04T04:33:50.438Z,41.12
2018-07-04T04:36:18.148Z,41.35
2018-07-04T04:38:45.889Z,41.27
2018-07-04T04:41:14.814Z,41.33
2018-07-04T04:43:42.513Z,41.03
2018-07-04T04:46:10.956Z,41.18
2018-07-04T04:48:39.036Z,40.99
2018-07-04T04:51:06.737Z,41.58
2018-07-04T04:56:08.153Z,41.34
2018-07-04T04:58:36.488Z,41.74
2018-07-04T05:01:04.164Z,41.42
2018-07-04T05:03:32.256Z,41.17
2018-07-04T05:05:59.980Z,41.60
2018-07-04T05:08:27.653Z,41.25
2018-07-04T05:10:55.629Z,41.07
2018-07-04T05:13:23.322Z,41.12
2018-07-04T05:15:52.763Z,41.73
2018-07-04T05:18:20.729Z,41.90
2018-07-04T05:20:48.431Z,41.67
2018-07-04T05:23:16.120Z,41.77
2018-07-04T05:25:46.877Z,41.88
2018-07-04T05:28:15.570Z,42.37
2018-07-04T05:30:43.248Z,41.98
2018-07-04T05:33:11.244Z,42.19
2018-07-04T05:35:38.896Z,41.88
2018-07-04T05:38:06.570Z,41.26
2018-07-04T05:40:34.530Z,41.65
2018-07-04T05:43:02.969Z,40.95
2018-07-04T05:45:30.656Z,41.32
2018-07-04T05:47:58.589Z,40.45
2018-07-04T05:50:26.261Z,40.35
2018-07-04T05:52:53.984Z,39.95
2018-07-04T05:55:22.708Z,39.75
2018-07-04T05:57:50.382Z,40.53
2018-07-04T06:00:18.656Z,39.93
2018-07-04T06:02:46.756Z,40.64
2018-07-04T06:05:14.424Z,40.20
2018-07-04T06:07:42.084Z,40.91
2018-07-04T06:10:10.048Z,40.31
2018-07-04T06:12:37.702Z,40.13
2018-07-04T06:15:05.819Z,39.56
2018-07-04T06:17:33.631Z,39.32
2018-07-04T06:20:03.284Z,39.14
2018-07-04T06:22:31.272Z,39.17
2018-07-04T06:24:58.929Z,39.67
2018-07-04T06:27:26.591Z,39.35
2018-07-04T06:29:54.531Z,39.09
2018-07-04T06:32:22.247Z,39.36
2018-07-04T06:34:50.752Z,39.64
2018-07-04T06:37:18.705Z,39.51
2018-07-04T06:39:46.368Z,38.80
2018-07-04T06:42:16.260Z,38.96
2018-07-04T06:44:44.206Z,38.57
2018-07-04T06:47:12.487Z,38.94
2018-07-04T06:49:42.326Z,38.15
2018-07-04T06:52:10.303Z,38.51
2018-07-04T06:54:37.960Z,38.33
2018-07-04T06:57:05.617Z,37.53
2018-07-04T06:59:33.751Z,37.97
2018-07-04T07:02:01.397Z,38.21
2018-07-04T07:04:32.705Z,37.95
2018-07-04T07:07:01.772Z,37.87
2018-07-04T07:09:30.444Z,37.41
2018-07-04T07:12:00.120Z,37.33
2018-07-04T07:14:28.928Z,37.19
2018-07-04T07:16:56.585Z,37.64
2018-07-04T07:19:24.253Z,37.40
2018-07-04T07:21:52.233Z,37.10
2018-07-04T07:24:19.909Z,36.72
2018-07-04T07:26:47.575Z,36.93
2018-07-04T07:29:15.524Z,36.10
2018-07-04T07:31:43.290Z,36.05
2018-07-04T07:34:11.076Z,35.80
2018-07-04T07:36:39.020Z,36.23
2018-07-04T07:39:06.663Z,35.71
2018-07-04T07:41:34.356Z,35.54
2018-07-04T07:44:02.325Z,35.60
2018-07-04T07:46:30.026Z,36.08
2018-07-04T07:48:57.700Z,35.53
2018-07-04T07:51:26.641Z,35.71
2018-07-04T07:53:54.368Z,35.86
2018-07-04T07:56:23.337Z,35.36
2018-07-04T07:58:51.353Z,35.57
2018-07-04T08:01:19.050Z,35.48
2018-07-04T08:03:46.735Z,35.79
2018-07-04T08:06:16.391Z,35.14
2018-07-04T08:08:44.096Z,35.34
2018-07-04T08:11:13.006Z,35.28
2018-07-04T08:13:41.777Z,34.64
2018-07-04T08:16:09.495Z,34.67
2018-07-04T08:18:41.698Z,35.27
2018-07-04T08:21:10.249Z,34.62
2018-07-04T08:23:37.917Z,34.21
2018-07-04T08:26:05.611Z,34.26
2018-07-04T08:28:33.612Z,34.54
2018-07-04T08:31:01.937Z,34.09
2018-07-04T08:33:29.642Z,34.18
2018-07-04T08:35:58.209Z,34.39
2018-07-04T08:38:25.896Z,34.15
2018-07-04T08:40:54.719Z,33.96
2018-07-04T08:43:22.676Z,33.03
2018-07-04T08:45:51.683Z,33.66
2018-07-04T08:48:19.799Z,33.66
2018-07-04T08:50:49.559Z,33.52
2018-07-04T08:53:17.367Z,33.45
2018-07-04T08:55:45.033Z,32.67
2018-07-04T08:58:13.840Z,32.43
2018-07-04T09:00:42.529Z,32.99
2018-07-04T09:03:10.433Z,32.41
2018-07-04T09:05:41.889Z,32.31
2018-07-04T09:08:09.559Z,32.70
2018-07-04T09:10:38.740Z,31.78
2018-07-04T09:13:09.794Z,32.23
2018-07-04T09:15:38.495Z,32.19
2018-07-04T09:18:08.455Z,31.18
2018-07-04T09:20:36.663Z,31.78
2018-07-04T09:23:04.890Z,31.64
2018-07-04T09:25:32.596Z,31.04
2018-07-04T09:28:01.543Z,31.44
2018-07-04T09:30:29.548Z,30.71
2018-07-04T09:32:58.901Z,30.41
2018-07-04T09:35:27.369Z,30.29
2018-07-04T09:37:55.070Z,30.32
2018-07-04T09:40:22.746Z,30.58
2018-07-04T09:42:52.120Z,29.53
2018-07-04T09:45:20.587Z,30.20
2018-07-04T09:47:48.371Z,29.29
2018-07-04T09:50:16.341Z,29.80
2018-07-04T09:52:44.558Z,29.68
2018-07-04T09:55:12.272Z,28.74
2018-07-04T09:57:40.227Z,29.31
2018-07-04T10:00:08.581Z,28.35
2018-07-04T10:02:40.469Z,28.86
2018-07-04T10:05:18.005Z,28.26
2018-07-04T10:07:45.708Z,27.42
2018-07-04T10:10:14.220Z,27.40
2018-07-04T10:12:41.945Z,28.29
2018-07-04T10:15:09.673Z,27.42
2018-07-04T10:17:37.659Z,27.36
2018-07-04T10:20:05.336Z,28.42
2018-07-04T10:22:33.033Z,28.57
2018-07-04T10:25:03.200Z,27.88
2018-07-04T10:27:32.580Z,27.19
2018-07-04T10:30:02.652Z,27.35
2018-07-04T10:32:33.034Z,26.32
2018-07-04T10:35:01.435Z,26.31
2018-07-04T10:37:29.161Z,25.27
2018-07-04T10:39:57.151Z,25.46
2018-07-04T10:42:24.882Z,24.66
2018-07-04T10:44:53.551Z,24.87
2018-07-04T10:47:22.338Z,25.14
2018-07-04T10:49:50.089Z,23.43
2018-07-04T10:52:18.453Z,24.01
2018-07-04T10:54:46.382Z,24.04
2018-07-04T10:57:14.327Z,23.58
2018-07-04T10:59:42.018Z,24.41
2018-07-04T11:02:09.948Z,24.30
2018-07-04T11:04:37.703Z,23.18
2018-07-04T11:07:07.289Z,23.68
2018-07-04T11:09:35.450Z,24.25
2018-07-04T11:12:04.071Z,23.23
2018-07-04T11:14:31.778Z,23.25
2018-07-04T11:16:59.744Z,23.02
2018-07-04T11:19:27.461Z,24.19
2018-07-04T11:21:55.142Z,23.35
2018-07-04T11:24:23.262Z,22.95
2018-07-04T11:26:51.104Z,22.94
2018-07-04T11:29:18.833Z,22.88
2018-07-04T11:31:46.891Z,22.86
2018-07-04T11:34:15.086Z,23.62
2018-07-04T11:36:42.795Z,22.86
2018-07-04T11:39:10.781Z,23.01
2018-07-04T11:41:38.464Z,22.46
2018-07-04T11:44:06.129Z,22.30
2018-07-04T11:46:34.296Z,22.09
2018-07-04T11:49:03.469Z,23.03
2018-07-04T11:51:32.171Z,22.44
2018-07-04T11:54:00.822Z,22.87
2018-07-04T11:56:28.728Z,22.51
2018-07-04T11:58:56.464Z,21.71
2018-07-04T12:01:25.400Z,23.03
2018-07-04T12:03:53.084Z,23.44
2018-07-04T12:06:21.349Z,23.71
2018-07-04T12:08:49.405Z,24.14
2018-07-04T12:11:17.925Z,24.88
2018-07-04T12:13:46.200Z,24.26
2018-07-04T12:16:15.504Z,25.24
2018-07-04T12:18:43.170Z,24.75
2018-07-04T12:21:10.820Z,25.36
2018-07-04T12:23:39.317Z,25.35
2018-07-04T12:26:08.353Z,26.50
2018-07-04T12:28:36.033Z,26.94
2018-07-04T12:31:04.049Z,26.46
2018-07-04T12:33:31.803Z,26.83
2018-07-04T12:36:03.383Z,27.82
2018-07-04T12:38:32.405Z,27.31
2018-07-04T12:41:02.304Z,27.62
2018-07-04T12:43:30.711Z,28.49
2018-07-04T12:45:59.400Z,28.85
2018-07-04T12:48:27.337Z,28.37
2018-07-04T12:50:56.205Z,29.20
2018-07-04T12:53:24.132Z,28.41
2018-07-04T12:55:51.804Z,28.78
2018-07-04T12:58:21.656Z,27.07
2018-07-04T13:00:54.481Z,26.05
2018-07-04T13:03:23.428Z,26.63
2018-07-04T13:05:51.873Z,26.23
2018-07-04T13:08:22.420Z,26.60
2018-07-04T13:10:50.111Z,27.12
2018-07-04T13:13:18.476Z,27.54
2018-07-04T13:15:46.420Z,27.92
2018-07-04T13:18:17.031Z,28.02
2018-07-04T13:20:44.711Z,29.29
2018-07-04T13:23:12.690Z,29.60
2018-07-04T13:25:40.431Z,29.13
2018-07-04T13:28:11.029Z,29.50
2018-07-04T13:30:40.649Z,29.54
2018-07-04T13:33:10.081Z,30.15
2018-07-04T13:35:37.800Z,30.06
2018-07-04T13:38:05.711Z,30.07
2018-07-04T13:43:07.362Z,30.42
2018-07-04T13:45:36.869Z,30.41
2018-07-04T13:48:09.213Z,31.23
2018-07-04T13:50:39.693Z,30.27
2018-07-04T13:53:09.760Z,30.36
2018-07-04T13:55:37.762Z,31.12
2018-07-04T13:58:05.616Z,30.74
2018-07-04T14:00:34.480Z,31.17
2018-07-04T14:03:04.875Z,30.62
2018-07-04T14:05:33.065Z,31.29
2018-07-04T14:08:01.801Z,30.84
2018-07-04T14:10:29.553Z,31.00
2018-07-04T14:12:57.236Z,31.51
2018-07-04T14:15:26.988Z,30.58
2018-07-04T14:17:55.025Z,30.75
2018-07-04T14:20:24.019Z,30.65
2018-07-04T14:22:54.130Z,29.43
2018-07-04T14:25:22.420Z,29.06
2018-07-04T14:27:50.134Z,29.94
2018-07-04T14:30:19.497Z,29.37
2018-07-04T14:32:48.420Z,30.29
2018-07-04T14:35:16.921Z,30.16
2018-07-04T14:37:46.953Z,30.39
2018-07-04T14:40:14.675Z,30.33
2018-07-04T14:42:42.937Z,28.91
2018-07-04T14:45:11.573Z,28.25
2018-07-04T14:47:41.656Z,27.69
2018-07-04T14:50:09.512Z,28.20
2018-07-04T14:52:38.535Z,27.20
2018-07-04T14:55:06.288Z,27.57
2018-07-04T14:57:34.509Z,28.41
2018-07-04T15:00:03.489Z,27.74
2018-07-04T15:02:32.361Z,28.12
2018-07-04T15:05:00.059Z,29.41
2018-07-04T15:07:28.050Z,29.74
2018-07-04T15:09:55.808Z,28.84
2018-07-04T15:12:24.181Z,28.99
2018-07-04T15:14:55.685Z,29.53
2018-07-04T15:17:23.413Z,29.75
2018-07-04T15:19:51.144Z,29.76
2018-07-04T15:22:20.373Z,29.85
2018-07-04T15:24:48.055Z,29.46
2018-07-04T15:27:15.752Z,30.14
2018-07-04T15:29:43.720Z,30.17
2018-07-04T15:32:11.687Z,29.72
2018-07-04T15:34:39.414Z,29.24
2018-07-04T15:37:07.409Z,29.41
2018-07-04T15:39:35.793Z,29.64
2018-07-04T15:42:04.243Z,29.46
2018-07-04T15:44:32.324Z,29.48
2018-07-04T15:47:00.846Z,29.28
2018-07-04T15:49:28.533Z,29.65
2018-07-04T15:51:56.465Z,29.52
2018-07-04T15:54:24.132Z,29.14
2018-07-04T15:56:53.278Z,29.75
2018-07-04T15:59:21.232Z,29.82
2018-07-04T16:01:52.560Z,29.08
2018-07-04T16:04:21.456Z,29.88
2018-07-04T16:06:54.620Z,30.06
2018-07-04T16:09:22.527Z,30.15
2018-07-04T16:11:51.045Z,29.99
2018-07-04T16:14:19.390Z,29.41
2018-07-04T16:16:53.429Z,30.22
2018-07-04T16:19:25.116Z,29.53
2018-07-04T16:21:53.099Z,28.72
2018-07-04T16:24:21.291Z,29.12
2018-07-04T16:26:48.981Z,28.40
2018-07-04T16:29:16.930Z,29.67
2018-07-04T16:31:44.673Z,29.56
2018-07-04T16:34:12.432Z,30.18
2018-07-04T16:36:40.436Z,31.41
2018-07-04T16:39:11.741Z,31.14
2018-07-04T16:41:45.130Z,32.34
2018-07-04T16:44:15.229Z,32.77
2018-07-04T16:46:44.400Z,33.55
2018-07-04T16:49:12.905Z,33.60
2018-07-04T16:51:42.443Z,33.45
2018-07-04T16:54:10.841Z,33.38
2018-07-04T16:56:39.340Z,33.24
2018-07-04T16:59:10.487Z,34.34
2018-07-04T17:01:39.332Z,34.53
2018-07-04T17:04:11.968Z,34.02
2018-07-04T17:06:39.899Z,34.95
2018-07-04T17:09:09.164Z,35.15
2018-07-04T17:11:36.822Z,34.88
2018-07-04T17:14:06.149Z,35.71
2018-07-04T17:16:35.426Z,35.99
2018-07-04T17:32:16.577Z,36.84
2018-07-04T17:34:44.254Z,36.39
2018-07-04T17:37:12.249Z,37.13
2018-07-04T17:39:39.941Z,36.32
2018-07-04T17:42:07.685Z,37.15
2018-07-04T17:44:36.642Z,36.33
2018-07-04T17:47:05.649Z,36.72
2018-07-04T17:49:34.056Z,36.80
2018-07-04T17:52:02.231Z,37.86
2018-07-04T17:54:30.870Z,37.80
2018-07-04T17:56:58.540Z,38.12
2018-07-04T17:59:30.163Z,37.83
2018-07-04T18:01:57.860Z,38.35
2018-07-04T18:04:25.547Z,38.79
2018-07-04T18:06:55.371Z,38.33
2018-07-04T18:09:24.704Z,38.54
2018-07-04T18:11:52.459Z,38.77
2018-07-04T18:14:20.413Z,38.87
2018-07-04T18:16:50.301Z,38.96
2018-07-04T18:19:19.291Z,39.76
2018-07-04T18:21:48.088Z,39.72
2018-07-04T18:24:15.755Z,39.51
2018-07-04T18:26:45.427Z,40.41
2018-07-04T18:29:13.430Z,40.01
2018-07-04T18:31:41.110Z,39.83
2018-07-04T18:34:09.326Z,40.72
2018-07-04T18:36:37.592Z,40.80
2018-07-04T18:39:05.670Z,40.87
2018-07-04T18:41:34.736Z,41.08
2018-07-04T18:44:07.510Z,41.32
2018-07-04T18:46:35.180Z,41.59
2018-07-04T18:49:02.880Z,41.62
2018-07-04T18:51:31.911Z,41.03
2018-07-04T18:53:59.593Z,41.53
2018-07-04T18:56:27.577Z,41.20
2018-07-04T18:58:56.312Z,42.20
2018-07-04T19:01:25.397Z,41.81
2018-07-04T19:03:53.732Z,42.17
2018-07-04T19:06:21.759Z,42.22
2018-07-04T19:08:50.096Z,42.54
2018-07-04T19:11:17.809Z,42.48
2018-07-04T19:13:46.507Z,42.57
2018-07-04T19:16:14.207Z,43.73
2018-07-04T19:18:43.599Z,43.53
2018-07-04T19:21:11.580Z,44.10
2018-07-04T19:23:41.383Z,44.04
2018-07-04T19:26:09.559Z,44.76
2018-07-04T19:28:37.620Z,44.25
2018-07-04T19:31:09.256Z,45.12
2018-07-04T19:33:37.756Z,44.89
2018-07-04T19:36:06.516Z,45.58
2018-07-04T19:38:35.624Z,45.21
2018-07-04T19:41:06.713Z,45.58
2018-07-04T19:43:35.044Z,45.74
2018-07-04T19:46:03.405Z,45.53
2018-07-04T19:48:33.274Z,46.19
2018-07-04T19:51:01.258Z,46.49
2018-07-04T19:53:29.736Z,46.46
2018-07-04T19:55:57.405Z,45.97
2018-07-04T19:58:27.355Z,46.24
2018-07-04T20:00:55.211Z,46.81
2018-07-04T20:03:24.300Z,47.07
2018-07-04T20:05:57.225Z,46.94
2018-07-04T20:08:27.312Z,47.29
2018-07-04T20:10:56.368Z,47.18
2018-07-04T20:13:32.762Z,48.13
2018-07-04T20:16:01.829Z,48.24
2018-07-04T20:18:32.468Z,47.65
2018-07-04T20:21:02.731Z,48.03
2018-07-04T20:23:34.891Z,48.06
2018-07-04T20:26:03.268Z,47.77
2018-07-04T20:28:32.871Z,47.93
2018-07-04T20:31:02.054Z,48.43
2018-07-04T20:33:29.734Z,48.49
2018-07-04T20:36:00.522Z,47.85
2018-07-04T20:38:29.364Z,48.08
2018-07-04T20:41:00.414Z,47.91
2018-07-04T20:43:29.103Z,48.78
2018-07-04T20:45:59.680Z,48.67
2018-07-04T20:48:27.371Z,48.04
2018-07-04T20:50:59.709Z,48.28
2018-07-04T20:53:31.070Z,49.21
2018-07-04T20:55:59.460Z,49.84
2018-07-04T20:58:29.937Z,50.09
2018-07-04T21:00:59.616Z,50.57
2018-07-04T21:03:29.317Z,50.08
2018-07-04T21:06:01.918Z,50.06
2018-07-04T21:08:30.568Z,50.52
2018-07-04T21:11:12.367Z,50.25
2018-07-04T21:13:40.332Z,50.81
2018-07-04T21:16:09.570Z,50.86
2018-07-04T21:18:37.885Z,50.37
2018-07-04T21:21:06.935Z,50.21
2018-07-04T21:23:34.608Z,50.52
2018-07-04T21:26:04.164Z,50.94
2018-07-04T21:28:33.747Z,50.86
2018-07-04T21:31:02.636Z,50.51
2018-07-04T21:33:30.288Z,51.76
2018-07-04T21:35:58.303Z,51.09
2018-07-04T21:38:25.966Z,51.07
2018-07-04T21:40:56.617Z,51.67
2018-07-04T21:43:25.107Z,51.11
2018-07-04T21:45:55.757Z,51.40
2018-07-04T21:48:27.452Z,51.32
2018-07-04T21:50:57.200Z,53.03
2018-07-04T21:53:25.434Z,52.20
2018-07-04T21:55:53.651Z,52.63
2018-07-04T21:58:21.631Z,52.17
2018-07-04T22:00:50.410Z,52.46
2018-07-04T22:03:19.361Z,52.15
2018-07-04T22:05:48.283Z,52.06
2018-07-04T22:08:21.880Z,51.74
2018-07-04T22:10:49.821Z,51.83
2018-07-04T22:13:17.998Z,52.50
2018-07-04T22:15:49.229Z,52.75
2018-07-04T22:18:17.261Z,52.51
2018-07-04T22:20:45.683Z,52.21
2018-07-04T22:34:27.321Z,53.00
2018-07-04T22:39:39.010Z,53.14
2018-07-04T22:44:41.568Z,53.21
2018-07-04T22:49:55.236Z,53.31
2018-07-04T22:55:03.401Z,53.56
2018-07-04T22:57:32.662Z,52.90
2018-07-04T23:00:00.372Z,52.71
2018-07-04T23:02:28.276Z,53.36
2018-07-04T23:04:59.479Z,52.69
2018-07-04T23:07:30.591Z,53.34
2018-07-04T23:12:35.667Z,52.86
2018-07-04T23:15:04.216Z,53.79
2018-07-04T23:20:05.195Z,53.35
2018-07-04T23:22:43.426Z,53.87
2018-07-04T23:38:20.019Z,53.47
2018-07-04T23:48:34.908Z,53.90
2018-07-04T23:51:04.550Z,54.23
2018-07-04T23:53:32.239Z,54.24
